sensor_id;sensor_type;location;lat;lon;timestamp;P1;durP1;ratioP1;P2;durP2;ratioP2
54037;SDS011;39954;48.844;9.726;2022-09-21T00:00:36;46.63;;;6.60;;
54037;SDS011;39954;48.844;9.726;2022-09-21T00:01:44;24.05;;;13.20;;
54037;SDS011;39954;48.844;9.726;2022-09-21T00:02:46;16.45;;;14.02;;
54037;SDS011;39954;48.844;9.726;2022-09-21T00:03:51;45.25;;;36.78;;
54037;SDS011;39954;48.844;9.726;2022-09-21T00:04:54;28.80;;;20.70;;
54037;SDS011;39954;48.844;9.726;2022-09-21T00:06:02;79.55;;;71.43;;
54037;SDS011;39954;48.844;9.726;2022-09-21T00:07:05;54.13;;;20.27;;
54037;SDS011;39954;48.844;9.726;2022-09-21T00:08:10;60.00;;;54.65;;
54037;SDS011;39954;48.844;9.726;2022-09-21T00:09:15;28.55;;;6.70;;
54037;SDS011;39954;48.844;9.726;2022-09-21T00:10:20;16.98;;;11.00;;
54037;SDS011;39954;48.844;9.726;2022-09-21T00:11:23;27.60;;;11.73;;
54037;SDS011;39954;48.844;9.726;2022-09-21T00:12:28;32.25;;;9.48;;
54037;SDS011;39954;48.844;9.726;2022-09-21T00:13:32;41.45;;;21.35;;
54037;SDS011;39954;48.844;9.726;2022-09-21T00:14:38;54.55;;;43.70;;
54037;SDS011;39954;48.844;9.726;2022-09-21T00:15:42;58.88;;;40.40;;
54037;SDS011;39954;48.844;9.726;2022-09-21T00:16:47;158.15;;;140.98;;
54037;SDS011;39954;48.844;9.726;2022-09-21T00:17:53;197.38;;;164.65;;
54037;SDS011;39954;48.844;9.726;2022-09-21T00:18:57;126.20;;;111.43;;
54037;SDS011;39954;48.844;9.726;2022-09-21T00:20:02;118.82;;;107.75;;
54037;SDS011;39954;48.844;9.726;2022-09-21T00:21:06;627.58;;;571.35;;
54037;SDS011;39954;48.844;9.726;2022-09-21T00:22:11;601.17;;;547.88;;
54037;SDS011;39954;48.844;9.726;2022-09-21T00:23:13;738.97;;;537.47;;
54037;SDS011;39954;48.844;9.726;2022-09-21T00:24:20;27.25;;;6.30;;
54037;SDS011;39954;48.844;9.726;2022-09-21T00:25:25;20.35;;;6.20;;
54037;SDS011;39954;48.844;9.726;2022-09-21T00:26:30;26.42;;;5.78;;
54037;SDS011;39954;48.844;9.726;2022-09-21T00:27:35;44.42;;;7.35;;
54037;SDS011;39954;48.844;9.726;2022-09-21T00:28:37;30.73;;;6.53;;
54037;SDS011;39954;48.844;9.726;2022-09-21T00:29:44;30.35;;;7.05;;
54037;SDS011;39954;48.844;9.726;2022-09-21T00:30:46;29.25;;;7.00;;
54037;SDS011;39954;48.844;9.726;2022-09-21T00:31:55;33.47;;;7.07;;
54037;SDS011;39954;48.844;9.726;2022-09-21T00:32:59;35.45;;;7.47;;
54037;SDS011;39954;48.844;9.726;2022-09-21T00:34:01;37.25;;;7.43;;
54037;SDS011;39954;48.844;9.726;2022-09-21T00:35:08;54.67;;;8.60;;
54037;SDS011;39954;48.844;9.726;2022-09-21T00:36:11;23.73;;;7.45;;
54037;SDS011;39954;48.844;9.726;2022-09-21T00:37:17;43.47;;;8.30;;
54037;SDS011;39954;48.844;9.726;2022-09-21T00:38:20;40.42;;;8.18;;
54037;SDS011;39954;48.844;9.726;2022-09-21T00:39:24;36.80;;;7.57;;
54037;SDS011;39954;48.844;9.726;2022-09-21T00:40:27;18.90;;;7.25;;
54037;SDS011;39954;48.844;9.726;2022-09-21T00:41:32;31.90;;;7.97;;
54037;SDS011;39954;48.844;9.726;2022-09-21T00:42:37;25.45;;;7.45;;
54037;SDS011;39954;48.844;9.726;2022-09-21T00:43:44;24.73;;;6.80;;
54037;SDS011;39954;48.844;9.726;2022-09-21T00:44:50;28.77;;;6.75;;
54037;SDS011;39954;48.844;9.726;2022-09-21T00:45:53;19.00;;;6.63;;
54037;SDS011;39954;48.844;9.726;2022-09-21T00:47:08;20.50;;;7.18;;
54037;SDS011;39954;48.844;9.726;2022-09-21T00:48:15;25.77;;;6.55;;
54037;SDS011;39954;48.844;9.726;2022-09-21T00:49:18;27.27;;;7.13;;
54037;SDS011;39954;48.844;9.726;2022-09-21T00:50:23;21.77;;;6.85;;
54037;SDS011;39954;48.844;9.726;2022-09-21T00:51:25;35.15;;;7.38;;
54037;SDS011;39954;48.844;9.726;2022-09-21T00:52:31;21.98;;;6.32;;
54037;SDS011;39954;48.844;9.726;2022-09-21T00:53:36;33.00;;;7.20;;
54037;SDS011;39954;48.844;9.726;2022-09-21T00:54:42;34.67;;;6.45;;
54037;SDS011;39954;48.844;9.726;2022-09-21T00:55:48;26.10;;;6.68;;
54037;SDS011;39954;48.844;9.726;2022-09-21T00:56:58;24.83;;;6.05;;
54037;SDS011;39954;48.844;9.726;2022-09-21T00:58:04;23.23;;;6.32;;
54037;SDS011;39954;48.844;9.726;2022-09-21T00:59:12;39.22;;;6.65;;
54037;SDS011;39954;48.844;9.726;2022-09-21T01:00:21;39.60;;;6.43;;
54037;SDS011;39954;48.844;9.726;2022-09-21T01:01:26;51.65;;;7.22;;
54037;SDS011;39954;48.844;9.726;2022-09-21T01:02:30;30.58;;;6.05;;
54037;SDS011;39954;48.844;9.726;2022-09-21T01:03:35;23.85;;;5.63;;
54037;SDS011;39954;48.844;9.726;2022-09-21T01:04:37;21.75;;;5.60;;
54037;SDS011;39954;48.844;9.726;2022-09-21T01:05:42;30.58;;;6.32;;
54037;SDS011;39954;48.844;9.726;2022-09-21T01:06:44;25.65;;;6.05;;
54037;SDS011;39954;48.844;9.726;2022-09-21T01:07:50;14.75;;;4.93;;
54037;SDS011;39954;48.844;9.726;2022-09-21T01:08:53;23.90;;;5.18;;
54037;SDS011;39954;48.844;9.726;2022-09-21T01:10:02;20.60;;;5.85;;
54037;SDS011;39954;48.844;9.726;2022-09-21T01:11:10;21.33;;;6.00;;
54037;SDS011;39954;48.844;9.726;2022-09-21T01:12:32;40.22;;;6.25;;
54037;SDS011;39954;48.844;9.726;2022-09-21T01:13:46;31.10;;;6.03;;
54037;SDS011;39954;48.844;9.726;2022-09-21T01:15:04;46.70;;;6.80;;
54037;SDS011;39954;48.844;9.726;2022-09-21T01:16:18;21.25;;;5.85;;
54037;SDS011;39954;48.844;9.726;2022-09-21T01:17:33;30.27;;;6.07;;
54037;SDS011;39954;48.844;9.726;2022-09-21T01:18:42;25.40;;;5.28;;
54037;SDS011;39954;48.844;9.726;2022-09-21T01:20:03;35.20;;;6.03;;
54037;SDS011;39954;48.844;9.726;2022-09-21T01:21:31;50.72;;;7.10;;
54037;SDS011;39954;48.844;9.726;2022-09-21T01:22:42;33.92;;;5.88;;
54037;SDS011;39954;48.844;9.726;2022-09-21T01:24:00;28.35;;;5.10;;
54037;SDS011;39954;48.844;9.726;2022-09-21T01:25:18;30.88;;;5.35;;
54037;SDS011;39954;48.844;9.726;2022-09-21T01:26:36;40.78;;;5.85;;
54037;SDS011;39954;48.844;9.726;2022-09-21T01:28:01;50.80;;;6.75;;
54037;SDS011;39954;48.844;9.726;2022-09-21T01:29:18;29.27;;;5.72;;
54037;SDS011;39954;48.844;9.726;2022-09-21T01:30:23;32.00;;;6.03;;
54037;SDS011;39954;48.844;9.726;2022-09-21T01:31:30;46.17;;;6.72;;
54037;SDS011;39954;48.844;9.726;2022-09-21T01:32:37;48.10;;;6.97;;
54037;SDS011;39954;48.844;9.726;2022-09-21T01:33:46;19.05;;;5.82;;
54037;SDS011;39954;48.844;9.726;2022-09-21T01:34:54;32.08;;;6.70;;
54037;SDS011;39954;48.844;9.726;2022-09-21T01:36:06;44.08;;;6.95;;
54037;SDS011;39954;48.844;9.726;2022-09-21T01:37:14;35.22;;;6.78;;
54037;SDS011;39954;48.844;9.726;2022-09-21T01:38:24;21.25;;;6.45;;
54037;SDS011;39954;48.844;9.726;2022-09-21T01:39:30;31.48;;;7.45;;
54037;SDS011;39954;48.844;9.726;2022-09-21T01:40:38;27.92;;;7.43;;
54037;SDS011;39954;48.844;9.726;2022-09-21T01:41:43;25.45;;;7.47;;
54037;SDS011;39954;48.844;9.726;2022-09-21T01:42:53;50.72;;;27.38;;
54037;SDS011;39954;48.844;9.726;2022-09-21T01:44:02;29.60;;;7.45;;
54037;SDS011;39954;48.844;9.726;2022-09-21T01:45:12;23.50;;;6.50;;
54037;SDS011;39954;48.844;9.726;2022-09-21T01:46:21;54.33;;;8.60;;
54037;SDS011;39954;48.844;9.726;2022-09-21T01:47:28;31.83;;;7.40;;
54037;SDS011;39954;48.844;9.726;2022-09-21T01:48:35;30.25;;;8.07;;
54037;SDS011;39954;48.844;9.726;2022-09-21T01:49:42;38.17;;;8.05;;
54037;SDS011;39954;48.844;9.726;2022-09-21T01:50:50;54.05;;;9.07;;
54037;SDS011;39954;48.844;9.726;2022-09-21T01:51:59;35.67;;;7.93;;
54037;SDS011;39954;48.844;9.726;2022-09-21T01:53:08;25.80;;;9.38;;
54037;SDS011;39954;48.844;9.726;2022-09-21T01:54:17;29.73;;;7.30;;
54037;SDS011;39954;48.844;9.726;2022-09-21T01:55:23;26.80;;;17.30;;
54037;SDS011;39954;48.844;9.726;2022-09-21T01:56:31;33.30;;;16.55;;
54037;SDS011;39954;48.844;9.726;2022-09-21T01:57:39;30.02;;;8.25;;
54037;SDS011;39954;48.844;9.726;2022-09-21T01:58:51;56.75;;;29.30;;
54037;SDS011;39954;48.844;9.726;2022-09-21T02:00:02;51.92;;;24.02;;
54037;SDS011;39954;48.844;9.726;2022-09-21T02:01:11;96.18;;;63.88;;
54037;SDS011;39954;48.844;9.726;2022-09-21T02:02:18;27.83;;;8.80;;
54037;SDS011;39954;48.844;9.726;2022-09-21T02:03:27;48.05;;;11.20;;
54037;SDS011;39954;48.844;9.726;2022-09-21T02:04:32;42.78;;;9.63;;
54037;SDS011;39954;48.844;9.726;2022-09-21T02:05:39;95.97;;;49.50;;
54037;SDS011;39954;48.844;9.726;2022-09-21T02:06:43;47.42;;;15.18;;
54037;SDS011;39954;48.844;9.726;2022-09-21T02:07:50;33.50;;;20.02;;
54037;SDS011;39954;48.844;9.726;2022-09-21T02:08:53;42.55;;;26.13;;
54037;SDS011;39954;48.844;9.726;2022-09-21T02:09:58;63.67;;;47.13;;
54037;SDS011;39954;48.844;9.726;2022-09-21T02:11:03;69.00;;;17.50;;
54037;SDS011;39954;48.844;9.726;2022-09-21T02:12:11;45.50;;;30.08;;
54037;SDS011;39954;48.844;9.726;2022-09-21T02:13:20;106.88;;;79.97;;
54037;SDS011;39954;48.844;9.726;2022-09-21T02:14:31;32.83;;;7.25;;
54037;SDS011;39954;48.844;9.726;2022-09-21T02:15:37;30.15;;;9.73;;
54037;SDS011;39954;48.844;9.726;2022-09-21T02:17:00;16.83;;;4.43;;
54037;SDS011;39954;48.844;9.726;2022-09-21T02:18:10;51.58;;;8.30;;
54037;SDS011;39954;48.844;9.726;2022-09-21T02:19:25;29.25;;;6.88;;
54037;SDS011;39954;48.844;9.726;2022-09-21T02:20:37;26.95;;;7.60;;
54037;SDS011;39954;48.844;9.726;2022-09-21T02:21:51;77.95;;;53.83;;
54037;SDS011;39954;48.844;9.726;2022-09-21T02:23:04;34.47;;;8.35;;
54037;SDS011;39954;48.844;9.726;2022-09-21T02:24:17;38.75;;;12.02;;
54037;SDS011;39954;48.844;9.726;2022-09-21T02:25:29;39.33;;;8.32;;
54037;SDS011;39954;48.844;9.726;2022-09-21T02:26:42;34.78;;;13.57;;
54037;SDS011;39954;48.844;9.726;2022-09-21T02:27:52;30.80;;;8.50;;
54037;SDS011;39954;48.844;9.726;2022-09-21T02:29:04;19.27;;;7.55;;
54037;SDS011;39954;48.844;9.726;2022-09-21T02:30:13;22.63;;;6.88;;
54037;SDS011;39954;48.844;9.726;2022-09-21T02:31:26;32.00;;;7.63;;
54037;SDS011;39954;48.844;9.726;2022-09-21T02:32:42;41.38;;;7.70;;
54037;SDS011;39954;48.844;9.726;2022-09-21T02:33:54;37.35;;;8.38;;
54037;SDS011;39954;48.844;9.726;2022-09-21T02:35:01;58.60;;;8.30;;
54037;SDS011;39954;48.844;9.726;2022-09-21T02:36:10;38.90;;;7.57;;
54037;SDS011;39954;48.844;9.726;2022-09-21T02:37:21;26.67;;;7.10;;
54037;SDS011;39954;48.844;9.726;2022-09-21T02:39:37;16.65;;;6.20;;
54037;SDS011;39954;48.844;9.726;2022-09-21T02:40:51;17.90;;;5.53;;
54037;SDS011;39954;48.844;9.726;2022-09-21T02:42:00;25.45;;;5.88;;
54037;SDS011;39954;48.844;9.726;2022-09-21T02:43:08;38.00;;;6.70;;
54037;SDS011;39954;48.844;9.726;2022-09-21T02:44:21;39.63;;;12.98;;
54037;SDS011;39954;48.844;9.726;2022-09-21T02:45:30;47.08;;;8.75;;
54037;SDS011;39954;48.844;9.726;2022-09-21T02:46:38;33.92;;;6.68;;
54037;SDS011;39954;48.844;9.726;2022-09-21T02:47:49;61.28;;;53.90;;
54037;SDS011;39954;48.844;9.726;2022-09-21T02:48:59;74.00;;;23.38;;
54037;SDS011;39954;48.844;9.726;2022-09-21T02:50:05;60.67;;;37.60;;
54037;SDS011;39954;48.844;9.726;2022-09-21T02:51:15;41.53;;;7.10;;
54037;SDS011;39954;48.844;9.726;2022-09-21T02:52:20;117.35;;;102.45;;
54037;SDS011;39954;48.844;9.726;2022-09-21T02:53:26;108.45;;;97.00;;
54037;SDS011;39954;48.844;9.726;2022-09-21T02:54:31;94.10;;;40.22;;
54037;SDS011;39954;48.844;9.726;2022-09-21T02:55:37;34.72;;;8.13;;
54037;SDS011;39954;48.844;9.726;2022-09-21T02:56:40;85.43;;;26.17;;
54037;SDS011;39954;48.844;9.726;2022-09-21T02:57:47;106.03;;;86.10;;
54037;SDS011;39954;48.844;9.726;2022-09-21T02:58:50;148.65;;;122.75;;
54037;SDS011;39954;48.844;9.726;2022-09-21T02:59:59;109.93;;;93.95;;
54037;SDS011;39954;48.844;9.726;2022-09-21T03:01:02;37.85;;;18.17;;
54037;SDS011;39954;48.844;9.726;2022-09-21T03:02:10;51.83;;;21.88;;
54037;SDS011;39954;48.844;9.726;2022-09-21T03:03:16;85.15;;;23.38;;
54037;SDS011;39954;48.844;9.726;2022-09-21T03:04:23;37.25;;;7.10;;
54037;SDS011;39954;48.844;9.726;2022-09-21T03:05:28;57.55;;;23.00;;
54037;SDS011;39954;48.844;9.726;2022-09-21T03:06:39;45.00;;;7.53;;
54037;SDS011;39954;48.844;9.726;2022-09-21T03:07:41;132.05;;;95.35;;
54037;SDS011;39954;48.844;9.726;2022-09-21T03:08:46;53.17;;;9.57;;
54037;SDS011;39954;48.844;9.726;2022-09-21T03:09:49;74.32;;;35.97;;
54037;SDS011;39954;48.844;9.726;2022-09-21T03:10:55;27.52;;;7.85;;
54037;SDS011;39954;48.844;9.726;2022-09-21T03:11:58;88.82;;;74.50;;
54037;SDS011;39954;48.844;9.726;2022-09-21T03:13:02;53.25;;;46.92;;
54037;SDS011;39954;48.844;9.726;2022-09-21T03:14:05;21.15;;;9.55;;
54037;SDS011;39954;48.844;9.726;2022-09-21T03:15:09;41.85;;;27.45;;
54037;SDS011;39954;48.844;9.726;2022-09-21T03:16:11;42.33;;;8.10;;
54037;SDS011;39954;48.844;9.726;2022-09-21T03:17:17;30.92;;;7.15;;
54037;SDS011;39954;48.844;9.726;2022-09-21T03:18:21;33.10;;;7.28;;
54037;SDS011;39954;48.844;9.726;2022-09-21T03:19:26;49.17;;;7.82;;
54037;SDS011;39954;48.844;9.726;2022-09-21T03:20:31;38.85;;;7.70;;
54037;SDS011;39954;48.844;9.726;2022-09-21T03:21:34;61.08;;;49.55;;
54037;SDS011;39954;48.844;9.726;2022-09-21T03:22:44;25.33;;;6.15;;
54037;SDS011;39954;48.844;9.726;2022-09-21T03:23:46;102.65;;;93.53;;
54037;SDS011;39954;48.844;9.726;2022-09-21T03:24:51;44.92;;;36.42;;
54037;SDS011;39954;48.844;9.726;2022-09-21T03:25:57;43.25;;;7.35;;
54037;SDS011;39954;48.844;9.726;2022-09-21T03:27:03;37.53;;;31.77;;
54037;SDS011;39954;48.844;9.726;2022-09-21T03:28:05;92.32;;;84.50;;
54037;SDS011;39954;48.844;9.726;2022-09-21T03:29:10;35.40;;;28.40;;
54037;SDS011;39954;48.844;9.726;2022-09-21T03:30:13;35.08;;;16.55;;
54037;SDS011;39954;48.844;9.726;2022-09-21T03:31:18;143.95;;;130.75;;
54037;SDS011;39954;48.844;9.726;2022-09-21T03:32:21;85.82;;;78.97;;
54037;SDS011;39954;48.844;9.726;2022-09-21T03:33:28;190.88;;;170.50;;
54037;SDS011;39954;48.844;9.726;2022-09-21T03:34:33;63.78;;;40.22;;
54037;SDS011;39954;48.844;9.726;2022-09-21T03:35:35;63.20;;;56.95;;
54037;SDS011;39954;48.844;9.726;2022-09-21T03:36:40;119.93;;;108.72;;
54037;SDS011;39954;48.844;9.726;2022-09-21T03:37:45;142.25;;;128.45;;
54037;SDS011;39954;48.844;9.726;2022-09-21T03:38:47;139.57;;;121.43;;
54037;SDS011;39954;48.844;9.726;2022-09-21T03:39:51;99.85;;;72.50;;
54037;SDS011;39954;48.844;9.726;2022-09-21T03:40:53;160.52;;;143.75;;
54037;SDS011;39954;48.844;9.726;2022-09-21T03:41:58;131.25;;;89.95;;
54037;SDS011;39954;48.844;9.726;2022-09-21T03:43:00;104.45;;;64.40;;
54037;SDS011;39954;48.844;9.726;2022-09-21T03:44:05;122.38;;;84.57;;
54037;SDS011;39954;48.844;9.726;2022-09-21T03:45:08;48.85;;;39.70;;
54037;SDS011;39954;48.844;9.726;2022-09-21T03:46:14;60.30;;;31.63;;
54037;SDS011;39954;48.844;9.726;2022-09-21T03:47:17;95.70;;;86.88;;
54037;SDS011;39954;48.844;9.726;2022-09-21T03:48:22;87.30;;;57.30;;
54037;SDS011;39954;48.844;9.726;2022-09-21T03:49:27;44.40;;;36.53;;
54037;SDS011;39954;48.844;9.726;2022-09-21T03:50:32;64.35;;;33.80;;
54037;SDS011;39954;48.844;9.726;2022-09-21T03:51:35;30.30;;;10.00;;
54037;SDS011;39954;48.844;9.726;2022-09-21T03:52:40;30.63;;;9.60;;
54037;SDS011;39954;48.844;9.726;2022-09-21T03:53:42;23.02;;;7.03;;
54037;SDS011;39954;48.844;9.726;2022-09-21T03:54:47;38.88;;;7.57;;
54037;SDS011;39954;48.844;9.726;2022-09-21T03:55:49;26.85;;;9.52;;
54037;SDS011;39954;48.844;9.726;2022-09-21T03:56:53;27.85;;;5.68;;
54037;SDS011;39954;48.844;9.726;2022-09-21T03:57:56;15.10;;;4.88;;
54037;SDS011;39954;48.844;9.726;2022-09-21T03:59:00;30.20;;;5.70;;
54037;SDS011;39954;48.844;9.726;2022-09-21T04:00:04;46.80;;;16.13;;
54037;SDS011;39954;48.844;9.726;2022-09-21T04:01:11;53.92;;;24.58;;
54037;SDS011;39954;48.844;9.726;2022-09-21T04:02:13;30.55;;;5.93;;
54037;SDS011;39954;48.844;9.726;2022-09-21T04:03:18;45.78;;;19.98;;
54037;SDS011;39954;48.844;9.726;2022-09-21T04:04:20;32.40;;;5.10;;
54037;SDS011;39954;48.844;9.726;2022-09-21T04:05:27;39.83;;;15.02;;
54037;SDS011;39954;48.844;9.726;2022-09-21T04:06:32;43.40;;;8.10;;
54037;SDS011;39954;48.844;9.726;2022-09-21T04:07:35;33.53;;;5.97;;
54037;SDS011;39954;48.844;9.726;2022-09-21T04:08:41;44.35;;;6.70;;
54037;SDS011;39954;48.844;9.726;2022-09-21T04:09:44;56.10;;;7.15;;
54037;SDS011;39954;48.844;9.726;2022-09-21T04:10:48;43.47;;;7.05;;
54037;SDS011;39954;48.844;9.726;2022-09-21T04:11:51;52.35;;;7.05;;
54037;SDS011;39954;48.844;9.726;2022-09-21T04:12:56;37.10;;;6.07;;
54037;SDS011;39954;48.844;9.726;2022-09-21T04:13:58;22.58;;;5.35;;
54037;SDS011;39954;48.844;9.726;2022-09-21T04:15:04;23.00;;;7.68;;
54037;SDS011;39954;48.844;9.726;2022-09-21T04:16:08;26.27;;;5.68;;
54037;SDS011;39954;48.844;9.726;2022-09-21T04:17:14;34.53;;;6.03;;
54037;SDS011;39954;48.844;9.726;2022-09-21T04:18:18;39.55;;;28.55;;
54037;SDS011;39954;48.844;9.726;2022-09-21T04:19:21;30.02;;;6.25;;
54037;SDS011;39954;48.844;9.726;2022-09-21T04:20:28;33.00;;;6.13;;
54037;SDS011;39954;48.844;9.726;2022-09-21T04:21:30;81.68;;;67.03;;
54037;SDS011;39954;48.844;9.726;2022-09-21T04:22:35;115.43;;;103.93;;
54037;SDS011;39954;48.844;9.726;2022-09-21T04:23:43;84.65;;;59.22;;
54037;SDS011;39954;48.844;9.726;2022-09-21T04:24:48;54.22;;;42.85;;
54037;SDS011;39954;48.844;9.726;2022-09-21T04:25:50;133.45;;;119.10;;
54037;SDS011;39954;48.844;9.726;2022-09-21T04:26:57;89.38;;;82.57;;
54037;SDS011;39954;48.844;9.726;2022-09-21T04:28:00;83.88;;;75.35;;
54037;SDS011;39954;48.844;9.726;2022-09-21T04:29:05;164.75;;;152.50;;
54037;SDS011;39954;48.844;9.726;2022-09-21T04:30:08;130.43;;;116.57;;
54037;SDS011;39954;48.844;9.726;2022-09-21T04:31:14;22.63;;;6.50;;
54037;SDS011;39954;48.844;9.726;2022-09-21T04:32:16;75.97;;;69.05;;
54037;SDS011;39954;48.844;9.726;2022-09-21T04:33:21;76.32;;;9.18;;
54037;SDS011;39954;48.844;9.726;2022-09-21T04:34:24;41.03;;;6.40;;
54037;SDS011;39954;48.844;9.726;2022-09-21T04:35:32;17.08;;;5.25;;
54037;SDS011;39954;48.844;9.726;2022-09-21T04:36:34;34.30;;;27.40;;
54037;SDS011;39954;48.844;9.726;2022-09-21T04:37:39;42.78;;;27.17;;
54037;SDS011;39954;48.844;9.726;2022-09-21T04:38:41;16.85;;;4.88;;
54037;SDS011;39954;48.844;9.726;2022-09-21T04:39:45;13.82;;;4.70;;
54037;SDS011;39954;48.844;9.726;2022-09-21T04:40:53;29.90;;;5.40;;
54037;SDS011;39954;48.844;9.726;2022-09-21T04:41:59;19.83;;;4.97;;
54037;SDS011;39954;48.844;9.726;2022-09-21T04:43:03;27.83;;;5.03;;
54037;SDS011;39954;48.844;9.726;2022-09-21T04:44:06;54.20;;;7.35;;
54037;SDS011;39954;48.844;9.726;2022-09-21T04:45:11;55.50;;;6.88;;
54037;SDS011;39954;48.844;9.726;2022-09-21T04:46:14;18.30;;;5.03;;
54037;SDS011;39954;48.844;9.726;2022-09-21T04:47:20;26.55;;;5.50;;
54037;SDS011;39954;48.844;9.726;2022-09-21T04:48:24;23.70;;;5.05;;
54037;SDS011;39954;48.844;9.726;2022-09-21T04:49:28;26.85;;;6.00;;
54037;SDS011;39954;48.844;9.726;2022-09-21T04:50:33;37.83;;;5.93;;
54037;SDS011;39954;48.844;9.726;2022-09-21T04:51:38;30.27;;;5.35;;
54037;SDS011;39954;48.844;9.726;2022-09-21T04:52:40;118.25;;;10.68;;
54037;SDS011;39954;48.844;9.726;2022-09-21T04:53:45;50.72;;;6.47;;
54037;SDS011;39954;48.844;9.726;2022-09-21T04:54:49;50.00;;;6.82;;
54037;SDS011;39954;48.844;9.726;2022-09-21T04:55:52;51.40;;;6.93;;
54037;SDS011;39954;48.844;9.726;2022-09-21T04:56:56;44.83;;;6.68;;
54037;SDS011;39954;48.844;9.726;2022-09-21T04:57:59;91.82;;;27.05;;
54037;SDS011;39954;48.844;9.726;2022-09-21T04:59:03;46.10;;;17.60;;
54037;SDS011;39954;48.844;9.726;2022-09-21T05:00:09;61.50;;;12.52;;
54037;SDS011;39954;48.844;9.726;2022-09-21T05:01:14;69.47;;;17.73;;
54037;SDS011;39954;48.844;9.726;2022-09-21T05:02:16;47.88;;;14.85;;
54037;SDS011;39954;48.844;9.726;2022-09-21T05:03:21;47.30;;;6.93;;
54037;SDS011;39954;48.844;9.726;2022-09-21T05:04:24;62.05;;;42.75;;
54037;SDS011;39954;48.844;9.726;2022-09-21T05:05:30;40.90;;;6.57;;
54037;SDS011;39954;48.844;9.726;2022-09-21T05:06:34;63.63;;;7.38;;
54037;SDS011;39954;48.844;9.726;2022-09-21T05:07:39;43.65;;;6.00;;
54037;SDS011;39954;48.844;9.726;2022-09-21T05:08:41;59.80;;;7.15;;
54037;SDS011;39954;48.844;9.726;2022-09-21T05:09:58;23.45;;;5.35;;
54037;SDS011;39954;48.844;9.726;2022-09-21T05:11:06;25.05;;;7.88;;
54037;SDS011;39954;48.844;9.726;2022-09-21T05:12:09;26.08;;;13.15;;
54037;SDS011;39954;48.844;9.726;2022-09-21T05:13:14;45.58;;;40.65;;
54037;SDS011;39954;48.844;9.726;2022-09-21T05:14:20;25.58;;;5.70;;
54037;SDS011;39954;48.844;9.726;2022-09-21T05:15:24;35.78;;;6.13;;
54037;SDS011;39954;48.844;9.726;2022-09-21T05:16:29;32.17;;;5.95;;
54037;SDS011;39954;48.844;9.726;2022-09-21T05:17:31;37.38;;;6.18;;
54037;SDS011;39954;48.844;9.726;2022-09-21T05:18:36;23.50;;;5.95;;
54037;SDS011;39954;48.844;9.726;2022-09-21T05:19:38;17.73;;;5.45;;
54037;SDS011;39954;48.844;9.726;2022-09-21T05:20:52;10.88;;;5.03;;
54037;SDS011;39954;48.844;9.726;2022-09-21T05:21:54;48.28;;;6.68;;
54037;SDS011;39954;48.844;9.726;2022-09-21T05:22:59;28.17;;;5.28;;
54037;SDS011;39954;48.844;9.726;2022-09-21T05:24:02;46.28;;;8.45;;
54037;SDS011;39954;48.844;9.726;2022-09-21T05:25:07;26.23;;;5.30;;
54037;SDS011;39954;48.844;9.726;2022-09-21T05:26:13;55.83;;;14.27;;
54037;SDS011;39954;48.844;9.726;2022-09-21T05:27:15;49.83;;;17.80;;
54037;SDS011;39954;48.844;9.726;2022-09-21T05:28:20;78.82;;;66.88;;
54037;SDS011;39954;48.844;9.726;2022-09-21T05:29:23;108.68;;;96.72;;
54037;SDS011;39954;48.844;9.726;2022-09-21T05:30:28;111.07;;;48.00;;
54037;SDS011;39954;48.844;9.726;2022-09-21T05:31:38;125.22;;;40.05;;
54037;SDS011;39954;48.844;9.726;2022-09-21T05:32:47;33.10;;;5.80;;
54037;SDS011;39954;48.844;9.726;2022-09-21T05:34:02;59.47;;;8.57;;
54037;SDS011;39954;48.844;9.726;2022-09-21T05:35:09;58.17;;;11.35;;
54037;SDS011;39954;48.844;9.726;2022-09-21T05:36:26;59.83;;;13.30;;
54037;SDS011;39954;48.844;9.726;2022-09-21T05:37:46;37.55;;;29.60;;
54037;SDS011;39954;48.844;9.726;2022-09-21T05:38:57;86.32;;;62.08;;
54037;SDS011;39954;48.844;9.726;2022-09-21T05:39:59;76.80;;;59.75;;
54037;SDS011;39954;48.844;9.726;2022-09-21T05:41:05;43.00;;;6.10;;
54037;SDS011;39954;48.844;9.726;2022-09-21T05:42:09;31.52;;;5.32;;
54037;SDS011;39954;48.844;9.726;2022-09-21T05:43:14;41.15;;;5.88;;
54037;SDS011;39954;48.844;9.726;2022-09-21T05:44:20;42.88;;;7.18;;
54037;SDS011;39954;48.844;9.726;2022-09-21T05:45:23;118.22;;;103.10;;
54037;SDS011;39954;48.844;9.726;2022-09-21T05:46:31;47.45;;;6.25;;
54037;SDS011;39954;48.844;9.726;2022-09-21T05:47:39;60.40;;;7.57;;
54037;SDS011;39954;48.844;9.726;2022-09-21T05:49:07;57.55;;;8.80;;
54037;SDS011;39954;48.844;9.726;2022-09-21T05:50:24;158.48;;;126.55;;
54037;SDS011;39954;48.844;9.726;2022-09-21T05:51:41;59.15;;;43.65;;
54037;SDS011;39954;48.844;9.726;2022-09-21T05:52:59;185.63;;;132.35;;
54037;SDS011;39954;48.844;9.726;2022-09-21T05:54:17;60.75;;;31.65;;
54037;SDS011;39954;48.844;9.726;2022-09-21T05:55:30;135.35;;;122.50;;
54037;SDS011;39954;48.844;9.726;2022-09-21T05:56:42;139.40;;;124.90;;
54037;SDS011;39954;48.844;9.726;2022-09-21T05:57:58;49.00;;;15.90;;
54037;SDS011;39954;48.844;9.726;2022-09-21T05:59:11;122.03;;;65.25;;
54037;SDS011;39954;48.844;9.726;2022-09-21T06:00:37;46.17;;;33.63;;
54037;SDS011;39954;48.844;9.726;2022-09-21T06:01:50;27.48;;;16.00;;
54037;SDS011;39954;48.844;9.726;2022-09-21T06:03:06;33.35;;;24.35;;
54037;SDS011;39954;48.844;9.726;2022-09-21T06:04:26;59.83;;;31.67;;
54037;SDS011;39954;48.844;9.726;2022-09-21T06:05:28;64.05;;;20.48;;
54037;SDS011;39954;48.844;9.726;2022-09-21T06:06:33;62.60;;;16.42;;
54037;SDS011;39954;48.844;9.726;2022-09-21T06:07:38;61.10;;;9.05;;
54037;SDS011;39954;48.844;9.726;2022-09-21T06:08:43;48.42;;;8.93;;
54037;SDS011;39954;48.844;9.726;2022-09-21T06:09:45;43.55;;;8.85;;
54037;SDS011;39954;48.844;9.726;2022-09-21T06:10:50;78.93;;;60.50;;
54037;SDS011;39954;48.844;9.726;2022-09-21T06:11:52;75.15;;;30.77;;
54037;SDS011;39954;48.844;9.726;2022-09-21T06:12:57;172.40;;;154.13;;
54037;SDS011;39954;48.844;9.726;2022-09-21T06:13:59;112.80;;;66.93;;
54037;SDS011;39954;48.844;9.726;2022-09-21T06:15:04;71.50;;;11.95;;
54037;SDS011;39954;48.844;9.726;2022-09-21T06:16:10;72.75;;;11.68;;
54037;SDS011;39954;48.844;9.726;2022-09-21T06:17:15;45.58;;;10.35;;
54037;SDS011;39954;48.844;9.726;2022-09-21T06:18:17;54.58;;;11.90;;
54037;SDS011;39954;48.844;9.726;2022-09-21T06:19:21;38.03;;;10.98;;
54037;SDS011;39954;48.844;9.726;2022-09-21T06:20:24;67.78;;;12.88;;
54037;SDS011;39954;48.844;9.726;2022-09-21T06:21:28;56.25;;;11.93;;
54037;SDS011;39954;48.844;9.726;2022-09-21T06:22:30;55.13;;;38.15;;
54037;SDS011;39954;48.844;9.726;2022-09-21T06:23:38;78.95;;;44.65;;
54037;SDS011;39954;48.844;9.726;2022-09-21T06:24:42;62.75;;;32.50;;
54037;SDS011;39954;48.844;9.726;2022-09-21T06:25:49;45.58;;;18.58;;
54037;SDS011;39954;48.844;9.726;2022-09-21T06:26:58;44.55;;;13.75;;
54037;SDS011;39954;48.844;9.726;2022-09-21T06:28:01;110.93;;;73.60;;
54037;SDS011;39954;48.844;9.726;2022-09-21T06:29:06;91.72;;;60.70;;
54037;SDS011;39954;48.844;9.726;2022-09-21T06:30:11;48.85;;;13.25;;
54037;SDS011;39954;48.844;9.726;2022-09-21T06:31:14;56.83;;;14.63;;
54037;SDS011;39954;48.844;9.726;2022-09-21T06:32:19;48.15;;;15.90;;
54037;SDS011;39954;48.844;9.726;2022-09-21T06:33:21;53.30;;;16.65;;